sensor_id;sensor_type;location;lat;lon;timestamp;temperature;humidity
69823;SHT31;57119;52.516;13.508;2022-11-15T00:00:25;4.22;99.99
69823;SHT31;57119;52.516;13.508;2022-11-15T00:02:52;4.33;99.99
69823;SHT31;57119;52.516;13.508;2022-11-15T00:05:17;4.24;99.99
69823;SHT31;57119;52.516;13.508;2022-11-15T00:07:43;4.29;99.99
69823;SHT31;57119;52.516;13.508;2022-11-15T00:10:09;4.36;99.99
69823;SHT31;57119;52.516;13.508;2022-11-15T00:12:34;4.36;99.99
69823;SHT31;57119;52.516;13.508;2022-11-15T00:14:59;4.26;99.99
69823;SHT31;57119;52.516;13.508;2022-11-15T00:17:25;4.28;99.99
69823;SHT31;57119;52.516;13.508;2022-11-15T00:19:50;4.28;99.99
69823;SHT31;57119;52.516;13.508;2022-11-15T00:22:16;4.18;99.99
69823;SHT31;57119;52.516;13.508;2022-11-15T00:24:41;4.05;99.99
69823;SHT31;57119;52.516;13.508;2022-11-15T00:27:07;4.05;99.99
69823;SHT31;57119;52.516;13.508;2022-11-15T00:29:33;4.02;99.99
69823;SHT31;57119;52.516;13.508;2022-11-15T00:31:58;4.04;99.99
69823;SHT31;57119;52.516;13.508;2022-11-15T00:34:24;4.01;99.99
69823;SHT31;57119;52.516;13.508;2022-11-15T00:36:49;4.05;99.99
69823;SHT31;57119;52.516;13.508;2022-11-15T00:39:14;4.08;99.99
69823;SHT31;57119;52.516;13.508;2022-11-15T00:41:40;4.16;99.99
69823;SHT31;57119;52.516;13.508;2022-11-15T00:44:05;4.11;99.99
69823;SHT31;57119;52.516;13.508;2022-11-15T00:46:31;4.11;99.99
69823;SHT31;57119;52.516;13.508;2022-11-15T00:48:56;4.01;99.99
69823;SHT31;57119;52.516;13.508;2022-11-15T00:51:21;4.01;99.99
69823;SHT31;57119;52.516;13.508;2022-11-15T00:53:47;4.02;99.99
69823;SHT31;57119;52.516;13.508;2022-11-15T00:56:12;3.97;99.99
69823;SHT31;57119;52.516;13.508;2022-11-15T00:58:37;3.91;99.99
69823;SHT31;57119;52.516;13.508;2022-11-15T01:01:08;3.90;99.99
69823;SHT31;57119;52.516;13.508;2022-11-15T01:03:35;3.84;99.99
69823;SHT31;57119;52.516;13.508;2022-11-15T01:06:00;3.81;99.99
69823;SHT31;57119;52.516;13.508;2022-11-15T01:08:26;3.85;99.99
69823;SHT31;57119;52.516;13.508;2022-11-15T01:10:51;3.80;99.99
69823;SHT31;57119;52.516;13.508;2022-11-15T01:13:16;3.77;99.99
69823;SHT31;57119;52.516;13.508;2022-11-15T01:15:42;3.73;99.99
69823;SHT31;57119;52.516;13.508;2022-11-15T01:18:08;3.64;99.99
69823;SHT31;57119;52.516;13.508;2022-11-15T01:20:33;3.62;99.99
69823;SHT31;57119;52.516;13.508;2022-11-15T01:22:59;3.57;99.99
69823;SHT31;57119;52.516;13.508;2022-11-15T01:25:24;3.57;99.99
69823;SHT31;57119;52.516;13.508;2022-11-15T01:27:49;3.66;99.99
69823;SHT31;57119;52.516;13.508;2022-11-15T01:30:15;3.49;99.99
69823;SHT31;57119;52.516;13.508;2022-11-15T01:32:40;3.47;99.99
69823;SHT31;57119;52.516;13.508;2022-11-15T01:35:06;3.50;99.99
69823;SHT31;57119;52.516;13.508;2022-11-15T01:37:31;3.66;99.99
69823;SHT31;57119;52.516;13.508;2022-11-15T01:39:57;3.53;99.99
69823;SHT31;57119;52.516;13.508;2022-11-15T01:42:22;3.47;99.99
69823;SHT31;57119;52.516;13.508;2022-11-15T01:44:50;3.37;99.99
69823;SHT31;57119;52.516;13.508;2022-11-15T01:47:21;3.33;99.99
69823;SHT31;57119;52.516;13.508;2022-11-15T01:50:02;3.36;99.99
69823;SHT31;57119;52.516;13.508;2022-11-15T01:52:31;3.27;99.99
69823;SHT31;57119;52.516;13.508;2022-11-15T01:57:33;3.35;99.99
69823;SHT31;57119;52.516;13.508;2022-11-15T02:00:00;3.30;99.99
69823;SHT31;57119;52.516;13.508;2022-11-15T02:02:26;3.32;99.99
69823;SHT31;57119;52.516;13.508;2022-11-15T02:04:52;3.25;99.99
69823;SHT31;57119;52.516;13.508;2022-11-15T02:07:19;3.23;99.99
69823;SHT31;57119;52.516;13.508;2022-11-15T02:09:46;3.23;99.99
69823;SHT31;57119;52.516;13.508;2022-11-15T02:12:15;3.16;99.99
69823;SHT31;57119;52.516;13.508;2022-11-15T02:14:43;3.09;99.99
69823;SHT31;57119;52.516;13.508;2022-11-15T02:20:41;2.95;99.99
69823;SHT31;57119;52.516;13.508;2022-11-15T02:31:58;2.78;99.99
69823;SHT31;57119;52.516;13.508;2022-11-15T02:34:33;2.80;99.99
69823;SHT31;57119;52.516;13.508;2022-11-15T02:37:03;2.65;99.99
69823;SHT31;57119;52.516;13.508;2022-11-15T02:39:56;2.81;99.99
69823;SHT31;57119;52.516;13.508;2022-11-15T02:42:40;2.76;99.99
69823;SHT31;57119;52.516;13.508;2022-11-15T02:45:30;2.76;99.99
69823;SHT31;57119;52.516;13.508;2022-11-15T02:47:59;2.74;99.99
69823;SHT31;57119;52.516;13.508;2022-11-15T02:50:29;2.76;99.99
69823;SHT31;57119;52.516;13.508;2022-11-15T02:52:55;2.68;99.99
69823;SHT31;57119;52.516;13.508;2022-11-15T02:55:38;2.73;99.99
69823;SHT31;57119;52.516;13.508;2022-11-15T03:00:49;2.68;99.99
69823;SHT31;57119;52.516;13.508;2022-11-15T03:08:51;2.67;99.99
69823;SHT31;57119;52.516;13.508;2022-11-15T03:11:21;2.71;99.99
69823;SHT31;57119;52.516;13.508;2022-11-15T03:16:41;2.61;99.99
69823;SHT31;57119;52.516;13.508;2022-11-15T03:19:14;2.56;99.99
69823;SHT31;57119;52.516;13.508;2022-11-15T03:21:43;2.53;99.99
69823;SHT31;57119;52.516;13.508;2022-11-15T03:24:10;2.57;99.99
69823;SHT31;57119;52.516;13.508;2022-11-15T03:26:38;2.51;99.99
69823;SHT31;57119;52.516;13.508;2022-11-15T03:29:13;2.58;99.99
69823;SHT31;57119;52.516;13.508;2022-11-15T03:31:44;2.58;99.99
69823;SHT31;57119;52.516;13.508;2022-11-15T03:34:27;2.58;99.99
69823;SHT31;57119;52.516;13.508;2022-11-15T03:36:54;2.56;99.99
69823;SHT31;57119;52.516;13.508;2022-11-15T03:39:21;2.46;99.99
69823;SHT31;57119;52.516;13.508;2022-11-15T03:44:31;2.36;99.99
69823;SHT31;57119;52.516;13.508;2022-11-15T03:47:06;2.37;99.99
69823;SHT31;57119;52.516;13.508;2022-11-15T03:49:35;2.32;99.99
69823;SHT31;57119;52.516;13.508;2022-11-15T03:52:02;2.34;99.99
69823;SHT31;57119;52.516;13.508;2022-11-15T03:54:29;2.33;99.99
69823;SHT31;57119;52.516;13.508;2022-11-15T03:56:54;2.44;99.99
69823;SHT31;57119;52.516;13.508;2022-11-15T03:59:19;2.44;99.99
69823;SHT31;57119;52.516;13.508;2022-11-15T04:01:45;2.44;99.99
69823;SHT31;57119;52.516;13.508;2022-11-15T04:04:10;2.47;99.99
69823;SHT31;57119;52.516;13.508;2022-11-15T04:06:36;2.51;99.99
69823;SHT31;57119;52.516;13.508;2022-11-15T04:09:02;2.46;99.99
69823;SHT31;57119;52.516;13.508;2022-11-15T04:11:27;2.50;99.99
69823;SHT31;57119;52.516;13.508;2022-11-15T04:13:53;2.49;99.99
69823;SHT31;57119;52.516;13.508;2022-11-15T04:16:18;2.49;99.99
69823;SHT31;57119;52.516;13.508;2022-11-15T04:18:43;2.53;99.99
69823;SHT31;57119;52.516;13.508;2022-11-15T04:21:09;2.56;99.99
69823;SHT31;57119;52.516;13.508;2022-11-15T04:23:53;2.51;99.99
69823;SHT31;57119;52.516;13.508;2022-11-15T04:26:37;2.50;99.99
69823;SHT31;57119;52.516;13.508;2022-11-15T04:29:02;2.50;99.99
69823;SHT31;57119;52.516;13.508;2022-11-15T04:31:46;2.56;99.99
69823;SHT31;57119;52.516;13.508;2022-11-15T04:34:11;2.50;99.99
69823;SHT31;57119;52.516;13.508;2022-11-15T04:36:37;2.53;99.99
69823;SHT31;57119;52.516;13.508;2022-11-15T04:39:20;2.57;99.99
69823;SHT31;57119;52.516;13.508;2022-11-15T04:41:46;2.49;99.99
69823;SHT31;57119;52.516;13.508;2022-11-15T04:44:11;2.60;99.99
69823;SHT31;57119;52.516;13.508;2022-11-15T04:46:36;2.57;99.99
69823;SHT31;57119;52.516;13.508;2022-11-15T04:49:02;2.56;99.99
69823;SHT31;57119;52.516;13.508;2022-11-15T04:51:27;2.47;99.99
69823;SHT31;57119;52.516;13.508;2022-11-15T04:53:52;2.47;99.99
69823;SHT31;57119;52.516;13.508;2022-11-15T04:56:18;2.51;99.99
69823;SHT31;57119;52.516;13.508;2022-11-15T04:58:43;2.47;99.99
69823;SHT31;57119;52.516;13.508;2022-11-15T05:01:10;2.53;99.99
69823;SHT31;57119;52.516;13.508;2022-11-15T05:03:37;2.53;99.99
69823;SHT31;57119;52.516;13.508;2022-11-15T05:06:35;2.51;99.99
69823;SHT31;57119;52.516;13.508;2022-11-15T05:09:00;2.53;99.99
69823;SHT31;57119;52.516;13.508;2022-11-15T05:11:26;2.67;99.99
69823;SHT31;57119;52.516;13.508;2022-11-15T05:13:52;2.64;99.99
69823;SHT31;57119;52.516;13.508;2022-11-15T05:16:18;2.57;99.99
69823;SHT31;57119;52.516;13.508;2022-11-15T05:18:43;2.56;99.99
69823;SHT31;57119;52.516;13.508;2022-11-15T05:21:11;2.60;99.99
69823;SHT31;57119;52.516;13.508;2022-11-15T05:23:37;2.53;99.99
69823;SHT31;57119;52.516;13.508;2022-11-15T05:26:04;2.57;99.99
69823;SHT31;57119;52.516;13.508;2022-11-15T05:28:30;2.58;99.99
69823;SHT31;57119;52.516;13.508;2022-11-15T05:31:03;2.54;99.99
69823;SHT31;57119;52.516;13.508;2022-11-15T05:33:30;2.56;99.99
69823;SHT31;57119;52.516;13.508;2022-11-15T05:36:00;2.54;99.99
69823;SHT31;57119;52.516;13.508;2022-11-15T05:38:28;2.47;99.99
69823;SHT31;57119;52.516;13.508;2022-11-15T05:40:54;2.51;99.99
69823;SHT31;57119;52.516;13.508;2022-11-15T05:43:19;2.43;99.99
69823;SHT31;57119;52.516;13.508;2022-11-15T05:45:53;2.39;99.99
69823;SHT31;57119;52.516;13.508;2022-11-15T05:48:21;2.29;99.99
69823;SHT31;57119;52.516;13.508;2022-11-15T05:50:47;2.34;99.99
69823;SHT31;57119;52.516;13.508;2022-11-15T05:53:14;2.34;99.99
69823;SHT31;57119;52.516;13.508;2022-11-15T05:55:41;2.36;99.99
69823;SHT31;57119;52.516;13.508;2022-11-15T05:58:07;2.26;99.99
69823;SHT31;57119;52.516;13.508;2022-11-15T06:00:32;2.29;99.99
69823;SHT31;57119;52.516;13.508;2022-11-15T06:02:58;2.40;99.99
69823;SHT31;57119;52.516;13.508;2022-11-15T06:05:23;2.32;99.99
69823;SHT31;57119;52.516;13.508;2022-11-15T06:07:48;2.28;99.99
69823;SHT31;57119;52.516;13.508;2022-11-15T06:10:14;2.36;99.99
69823;SHT31;57119;52.516;13.508;2022-11-15T06:12:39;2.40;99.99
69823;SHT31;57119;52.516;13.508;2022-11-15T06:15:05;2.41;99.99
69823;SHT31;57119;52.516;13.508;2022-11-15T06:17:31;2.39;99.99
69823;SHT31;57119;52.516;13.508;2022-11-15T06:19:56;2.44;99.99
69823;SHT31;57119;52.516;13.508;2022-11-15T06:22:21;2.40;99.99
69823;SHT31;57119;52.516;13.508;2022-11-15T06:24:47;2.46;99.99
69823;SHT31;57119;52.516;13.508;2022-11-15T06:27:12;2.43;99.99
69823;SHT31;57119;52.516;13.508;2022-11-15T06:29:38;2.49;99.99
69823;SHT31;57119;52.516;13.508;2022-11-15T06:32:03;2.58;99.99
69823;SHT31;57119;52.516;13.508;2022-11-15T06:34:29;2.95;99.99
69823;SHT31;57119;52.516;13.508;2022-11-15T06:36:54;2.88;99.99
69823;SHT31;57119;52.516;13.508;2022-11-15T06:39:19;3.05;99.99
69823;SHT31;57119;52.516;13.508;2022-11-15T06:41:45;3.11;99.99
69823;SHT31;57119;52.516;13.508;2022-11-15T06:44:10;3.18;99.99
69823;SHT31;57119;52.516;13.508;2022-11-15T06:46:36;3.23;99.99
69823;SHT31;57119;52.516;13.508;2022-11-15T06:49:01;3.44;99.99
69823;SHT31;57119;52.516;13.508;2022-11-15T06:51:27;3.59;99.99
69823;SHT31;57119;52.516;13.508;2022-11-15T06:53:52;3.59;99.99
69823;SHT31;57119;52.516;13.508;2022-11-15T06:56:17;3.52;99.99
69823;SHT31;57119;52.516;13.508;2022-11-15T06:58:43;3.56;99.99
69823;SHT31;57119;52.516;13.508;2022-11-15T07:01:10;3.62;99.99
69823;SHT31;57119;52.516;13.508;2022-11-15T07:03:37;3.74;99.99
69823;SHT31;57119;52.516;13.508;2022-11-15T07:06:04;3.91;99.99
69823;SHT31;57119;52.516;13.508;2022-11-15T07:08:29;3.93;99.99
69823;SHT31;57119;52.516;13.508;2022-11-15T07:10:58;3.93;99.99
69823;SHT31;57119;52.516;13.508;2022-11-15T07:13:26;3.90;99.99
69823;SHT31;57119;52.516;13.508;2022-11-15T07:15:52;4.04;99.99
69823;SHT31;57119;52.516;13.508;2022-11-15T07:18:17;4.18;99.99
69823;SHT31;57119;52.516;13.508;2022-11-15T07:20:43;4.19;99.99
69823;SHT31;57119;52.516;13.508;2022-11-15T07:23:08;4.29;99.99
69823;SHT31;57119;52.516;13.508;2022-11-15T07:25:33;4.36;99.99
69823;SHT31;57119;52.516;13.508;2022-11-15T07:28:00;4.39;99.99
69823;SHT31;57119;52.516;13.508;2022-11-15T07:30:26;4.45;99.99
69823;SHT31;57119;52.516;13.508;2022-11-15T07:32:55;4.54;99.99
69823;SHT31;57119;52.516;13.508;2022-11-15T07:35:21;4.62;99.99
69823;SHT31;57119;52.516;13.508;2022-11-15T07:37:58;4.72;99.99
69823;SHT31;57119;52.516;13.508;2022-11-15T07:40:24;4.70;99.99
69823;SHT31;57119;52.516;13.508;2022-11-15T07:42:50;4.81;99.99
69823;SHT31;57119;52.516;13.508;2022-11-15T07:45:22;5.11;99.99
69823;SHT31;57119;52.516;13.508;2022-11-15T07:47:49;5.31;99.99
69823;SHT31;57119;52.516;13.508;2022-11-15T07:50:15;5.62;99.99
69823;SHT31;57119;52.516;13.508;2022-11-15T07:52:40;5.85;99.99
69823;SHT31;57119;52.516;13.508;2022-11-15T07:55:06;6.35;99.99
69823;SHT31;57119;52.516;13.508;2022-11-15T07:57:32;6.37;99.99
69823;SHT31;57119;52.516;13.508;2022-11-15T07:59:57;6.49;99.99
69823;SHT31;57119;52.516;13.508;2022-11-15T08:02:23;6.89;99.86
69823;SHT31;57119;52.516;13.508;2022-11-15T08:04:48;7.56;97.90
69823;SHT31;57119;52.516;13.508;2022-11-15T08:07:13;8.54;95.02
69823;SHT31;57119;52.516;13.508;2022-11-15T08:09:39;8.93;94.63
69823;SHT31;57119;52.516;13.508;2022-11-15T08:12:04;9.37;92.86
69823;SHT31;57119;52.516;13.508;2022-11-15T08:14:30;10.20;88.57
69823;SHT31;57119;52.516;13.508;2022-11-15T08:16:55;10.33;89.69
69823;SHT31;57119;52.516;13.508;2022-11-15T08:19:21;10.71;89.22
69823;SHT31;57119;52.516;13.508;2022-11-15T08:21:46;11.14;87.19
69823;SHT31;57119;52.516;13.508;2022-11-15T08:24:12;11.28;86.34
69823;SHT31;57119;52.516;13.508;2022-11-15T08:26:38;11.97;87.95
69823;SHT31;57119;52.516;13.508;2022-11-15T08:29:03;12.02;84.60
69823;SHT31;57119;52.516;13.508;2022-11-15T08:31:29;11.98;84.58
69823;SHT31;57119;52.516;13.508;2022-11-15T08:33:54;12.53;84.49
69823;SHT31;57119;52.516;13.508;2022-11-15T08:36:20;12.20;82.15
69823;SHT31;57119;52.516;13.508;2022-11-15T08:38:45;11.97;86.14
69823;SHT31;57119;52.516;13.508;2022-11-15T08:41:20;12.11;83.50
69823;SHT31;57119;52.516;13.508;2022-11-15T08:43:49;12.14;82.76
69823;SHT31;57119;52.516;13.508;2022-11-15T08:46:14;11.79;82.74
69823;SHT31;57119;52.516;13.508;2022-11-15T08:48:39;13.18;80.59
69823;SHT31;57119;52.516;13.508;2022-11-15T08:51:05;12.25;83.87
69823;SHT31;57119;52.516;13.508;2022-11-15T08:53:31;13.10;81.60
69823;SHT31;57119;52.516;13.508;2022-11-15T08:55:56;13.76;77.38
69823;SHT31;57119;52.516;13.508;2022-11-15T08:58:21;12.83;79.40
69823;SHT31;57119;52.516;13.508;2022-11-15T09:00:47;13.75;80.72
69823;SHT31;57119;52.516;13.508;2022-11-15T09:03:12;13.18;79.23
69823;SHT31;57119;52.516;13.508;2022-11-15T09:05:37;15.74;73.16
69823;SHT31;57119;52.516;13.508;2022-11-15T09:08:03;15.50;73.17
69823;SHT31;57119;52.516;13.508;2022-11-15T09:10:29;16.21;70.03
69823;SHT31;57119;52.516;13.508;2022-11-15T09:12:56;16.50;70.75
69823;SHT31;57119;52.516;13.508;2022-11-15T09:15:22;16.12;70.32
69823;SHT31;57119;52.516;13.508;2022-11-15T09:17:47;14.88;72.96
69823;SHT31;57119;52.516;13.508;2022-11-15T09:20:13;15.78;71.28
69823;SHT31;57119;52.516;13.508;2022-11-15T09:22:38;16.49;69.66
69823;SHT31;57119;52.516;13.508;2022-11-15T09:25:04;16.32;68.90
69823;SHT31;57119;52.516;13.508;2022-11-15T09:27:30;16.79;68.98
69823;SHT31;57119;52.516;13.508;2022-11-15T09:29:55;16.67;68.76
69823;SHT31;57119;52.516;13.508;2022-11-15T09:32:21;18.04;65.09
69823;SHT31;57119;52.516;13.508;2022-11-15T09:34:48;18.20;64.06
69823;SHT31;57119;52.516;13.508;2022-11-15T09:37:13;19.33;61.46
69823;SHT31;57119;52.516;13.508;2022-11-15T09:39:38;18.17;62.96
69823;SHT31;57119;52.516;13.508;2022-11-15T09:50:38;20.53;57.80
69823;SHT31;57119;52.516;13.508;2022-11-15T09:53:08;21.47;55.96
69823;SHT31;57119;52.516;13.508;2022-11-15T09:56:01;21.25;56.32
69823;SHT31;57119;52.516;13.508;2022-11-15T09:58:38;21.28;57.54
69823;SHT31;57119;52.516;13.508;2022-11-15T10:01:17;20.22;59.94
69823;SHT31;57119;52.516;13.508;2022-11-15T10:03:44;20.63;57.50
69823;SHT31;57119;52.516;13.508;2022-11-15T10:06:27;20.44;58.47
69823;SHT31;57119;52.516;13.508;2022-11-15T10:09:01;21.97;55.32
69823;SHT31;57119;52.516;13.508;2022-11-15T10:11:32;20.73;57.83
69823;SHT31;57119;52.516;13.508;2022-11-15T10:14:01;22.00;55.11
69823;SHT31;57119;52.516;13.508;2022-11-15T10:19:34;20.06;58.62
69823;SHT31;57119;52.516;13.508;2022-11-15T10:24:42;21.19;57.15
69823;SHT31;57119;52.516;13.508;2022-11-15T10:27:11;20.29;58.35
69823;SHT31;57119;52.516;13.508;2022-11-15T10:29:42;22.05;55.80
69823;SHT31;57119;52.516;13.508;2022-11-15T10:32:11;21.31;57.00
69823;SHT31;57119;52.516;13.508;2022-11-15T10:34:36;22.44;54.62
69823;SHT31;57119;52.516;13.508;2022-11-15T10:37:02;23.03;52.84
69823;SHT31;57119;52.516;13.508;2022-11-15T10:39:27;23.95;50.31
69823;SHT31;57119;52.516;13.508;2022-11-15T10:41:54;23.83;52.16
69823;SHT31;57119;52.516;13.508;2022-11-15T10:49:27;22.05;54.35
69823;SHT31;57119;52.516;13.508;2022-11-15T10:52:15;22.17;54.26
69823;SHT31;57119;52.516;13.508;2022-11-15T10:57:15;22.67;53.67
69823;SHT31;57119;52.516;13.508;2022-11-15T10:59:49;23.04;53.24
69823;SHT31;57119;52.516;13.508;2022-11-15T11:05:00;21.63;54.66
69823;SHT31;57119;52.516;13.508;2022-11-15T11:07:29;23.68;52.23
69823;SHT31;57119;52.516;13.508;2022-11-15T11:12:31;23.27;51.59
69823;SHT31;57119;52.516;13.508;2022-11-15T11:14:57;22.97;52.22
69823;SHT31;57119;52.516;13.508;2022-11-15T11:17:36;24.21;49.78
69823;SHT31;57119;52.516;13.508;2022-11-15T11:34:17;22.58;52.87
69823;SHT31;57119;52.516;13.508;2022-11-15T11:44:52;21.21;55.02
69823;SHT31;57119;52.516;13.508;2022-11-15T11:47:24;22.97;53.26
69823;SHT31;57119;52.516;13.508;2022-11-15T11:49:58;21.98;54.05
69823;SHT31;57119;52.516;13.508;2022-11-15T11:52:29;23.64;51.45
69823;SHT31;57119;52.516;13.508;2022-11-15T11:57:41;26.56;46.17
69823;SHT31;57119;52.516;13.508;2022-11-15T12:00:19;24.56;49.10
69823;SHT31;57119;52.516;13.508;2022-11-15T12:05:42;24.46;49.68
69823;SHT31;57119;52.516;13.508;2022-11-15T12:08:33;26.48;46.53
69823;SHT31;57119;52.516;13.508;2022-11-15T12:13:43;26.02;47.80
69823;SHT31;57119;52.516;13.508;2022-11-15T12:16:19;26.12;47.59
69823;SHT31;57119;52.516;13.508;2022-11-15T12:18:52;25.33;48.07
69823;SHT31;57119;52.516;13.508;2022-11-15T12:24:01;26.64;47.12
69823;SHT31;57119;52.516;13.508;2022-11-15T12:26:35;24.96;48.37
69823;SHT31;57119;52.516;13.508;2022-11-15T12:29:16;25.56;47.60
69823;SHT31;57119;52.516;13.508;2022-11-15T12:31:50;26.35;46.71
69823;SHT31;57119;52.516;13.508;2022-11-15T12:36:49;25.25;48.97
69823;SHT31;57119;52.516;13.508;2022-11-15T12:39:16;25.19;48.42
69823;SHT31;57119;52.516;13.508;2022-11-15T13:02:21;24.57;49.34
69823;SHT31;57119;52.516;13.508;2022-11-15T13:04:49;26.09;47.71
69823;SHT31;57119;52.516;13.508;2022-11-15T13:10:46;25.49;48.59
69823;SHT31;57119;52.516;13.508;2022-11-15T13:17:53;25.18;49.26
69823;SHT31;57119;52.516;13.508;2022-11-15T13:30:40;17.06;66.58
69823;SHT31;57119;52.516;13.508;2022-11-15T13:35:55;16.38;69.91
69823;SHT31;57119;52.516;13.508;2022-11-15T13:40:50;14.88;73.35
69823;SHT31;57119;52.516;13.508;2022-11-15T13:46:19;14.34;75.15
69823;SHT31;57119;52.516;13.508;2022-11-15T13:48:47;14.33;75.63
69823;SHT31;57119;52.516;13.508;2022-11-15T13:51:22;14.24;75.71
69823;SHT31;57119;52.516;13.508;2022-11-15T13:53:58;13.93;76.81
69823;SHT31;57119;52.516;13.508;2022-11-15T13:56:27;13.71;77.51
69823;SHT31;57119;52.516;13.508;2022-11-15T13:58:54;13.76;77.75
69823;SHT31;57119;52.516;13.508;2022-11-15T14:01:21;13.66;78.52
69823;SHT31;57119;52.516;13.508;2022-11-15T14:03:50;13.68;78.85
69823;SHT31;57119;52.516;13.508;2022-11-15T14:06:19;13.44;79.54
69823;SHT31;57119;52.516;13.508;2022-11-15T14:09:15;13.31;79.93
69823;SHT31;57119;52.516;13.508;2022-11-15T14:11:53;13.37;79.97
69823;SHT31;57119;52.516;13.508;2022-11-15T14:14:25;13.28;80.56
69823;SHT31;57119;52.516;13.508;2022-11-15T14:16:57;13.17;80.70
69823;SHT31;57119;52.516;13.508;2022-11-15T14:22:08;12.96;81.55
69823;SHT31;57119;52.516;13.508;2022-11-15T14:24:35;12.80;82.02
69823;SHT31;57119;52.516;13.508;2022-11-15T14:29:46;12.62;82.79
69823;SHT31;57119;52.516;13.508;2022-11-15T14:32:43;12.53;83.37
69823;SHT31;57119;52.516;13.508;2022-11-15T14:35:15;12.41;83.78
69823;SHT31;57119;52.516;13.508;2022-11-15T14:37:41;12.27;84.72
69823;SHT31;57119;52.516;13.508;2022-11-15T14:40:11;12.13;85.05
69823;SHT31;57119;52.516;13.508;2022-11-15T14:42:36;12.05;85.59
69823;SHT31;57119;52.516;13.508;2022-11-15T14:45:02;11.89;85.83
69823;SHT31;57119;52.516;13.508;2022-11-15T14:47:27;11.86;86.22
69823;SHT31;57119;52.516;13.508;2022-11-15T14:49:53;11.74;86.45
69823;SHT31;57119;52.516;13.508;2022-11-15T14:52:30;11.62;86.92
69823;SHT31;57119;52.516;13.508;2022-11-15T14:55:00;11.49;87.56
69823;SHT31;57119;52.516;13.508;2022-11-15T14:57:30;11.29;88.03
69823;SHT31;57119;52.516;13.508;2022-11-15T14:59:55;11.16;88.64
69823;SHT31;57119;52.516;13.508;2022-11-15T15:02:25;11.04;88.80
69823;SHT31;57119;52.516;13.508;2022-11-15T15:04:52;10.92;89.31
69823;SHT31;57119;52.516;13.508;2022-11-15T15:07:18;10.84;89.57
69823;SHT31;57119;52.516;13.508;2022-11-15T15:09:44;10.68;90.37
69823;SHT31;57119;52.516;13.508;2022-11-15T15:12:22;10.54;90.18
69823;SHT31;57119;52.516;13.508;2022-11-15T15:14:49;10.43;91.02
69823;SHT31;57119;52.516;13.508;2022-11-15T15:17:18;10.37;91.04
69823;SHT31;57119;52.516;13.508;2022-11-15T15:19:43;10.26;91.73
69823;SHT31;57119;52.516;13.508;2022-11-15T15:22:14;10.22;92.24
69823;SHT31;57119;52.516;13.508;2022-11-15T15:24:40;10.15;92.21
69823;SHT31;57119;52.516;13.508;2022-11-15T15:27:08;9.96;92.72
69823;SHT31;57119;52.516;13.508;2022-11-15T15:29:34;9.96;93.04
69823;SHT31;57119;52.516;13.508;2022-11-15T15:31:59;9.91;93.00
69823;SHT31;57119;52.516;13.508;2022-11-15T15:34:25;9.81;93.04
69823;SHT31;57119;52.516;13.508;2022-11-15T15:37:27;9.77;94.13
69823;SHT31;57119;52.516;13.508;2022-11-15T15:39:52;9.64;94.33
69823;SHT31;57119;52.516;13.508;2022-11-15T15:42:19;9.52;95.03
69823;SHT31;57119;52.516;13.508;2022-11-15T15:44:46;9.47;95.12
69823;SHT31;57119;52.516;13.508;2022-11-15T15:47:12;9.31;95.32
69823;SHT31;57119;52.516;13.508;2022-11-15T15:49:38;9.29;95.60
69823;SHT31;57119;52.516;13.508;2022-11-15T15:52:04;9.20;95.62
69823;SHT31;57119;52.516;13.508;2022-11-15T15:54:29;9.10;94.90
69823;SHT31;57119;52.516;13.508;2022-11-15T15:56:54;8.98;94.49
69823;SHT31;57119;52.516;13.508;2022-11-15T15:59:20;8.86;95.16
69823;SHT31;57119;52.516;13.508;2022-11-15T16:01:45;8.82;95.72
69823;SHT31;57119;52.516;13.508;2022-11-15T16:04:11;8.81;95.94
69823;SHT31;57119;52.516;13.508;2022-11-15T16:06:40;8.72;96.28
69823;SHT31;57119;52.516;13.508;2022-11-15T16:09:13;8.62;96.63
69823;SHT31;57119;52.516;13.508;2022-11-15T16:11:38;8.54;96.51
69823;SHT31;57119;52.516;13.508;2022-11-15T16:14:04;8.50;96.54
69823;SHT31;57119;52.516;13.508;2022-11-15T16:16:29;8.34;97.23
69823;SHT31;57119;52.516;13.508;2022-11-15T16:18:54;8.29;97.38
69823;SHT31;57119;52.516;13.508;2022-11-15T16:21:20;8.29;99.37
69823;SHT31;57119;52.516;13.508;2022-11-15T16:23:45;8.42;99.49
69823;SHT31;57119;52.516;13.508;2022-11-15T16:26:19;8.40;99.50
69823;SHT31;57119;52.516;13.508;2022-11-15T16:28:45;8.44;99.78
69823;SHT31;57119;52.516;13.508;2022-11-15T16:31:11;8.40;99.59
69823;SHT31;57119;52.516;13.508;2022-11-15T16:33:37;8.48;99.99
69823;SHT31;57119;52.516;13.508;2022-11-15T16:38:44;8.45;99.99
69823;SHT31;57119;52.516;13.508;2022-11-15T16:41:09;8.40;99.99
69823;SHT31;57119;52.516;13.508;2022-11-15T16:43:35;8.41;99.99
69823;SHT31;57119;52.516;13.508;2022-11-15T16:46:06;8.29;99.99
69823;SHT31;57119;52.516;13.508;2022-11-15T16:48:34;8.24;99.99
69823;SHT31;57119;52.516;13.508;2022-11-15T16:50:59;8.16;99.99
69823;SHT31;57119;52.516;13.508;2022-11-15T16:53:26;8.17;99.99
69823;SHT31;57119;52.516;13.508;2022-11-15T16:55:51;8.14;99.99
69823;SHT31;57119;52.516;13.508;2022-11-15T16:58:17;8.10;99.99
69823;SHT31;57119;52.516;13.508;2022-11-15T17:00:42;7.97;99.99
69823;SHT31;57119;52.516;13.508;2022-11-15T17:03:07;8.00;99.99
69823;SHT31;57119;52.516;13.508;2022-11-15T17:05:33;7.93;99.99
69823;SHT31;57119;52.516;13.508;2022-11-15T17:07:59;7.87;99.99
69823;SHT31;57119;52.516;13.508;2022-11-15T17:10:25;7.81;99.99
69823;SHT31;57119;52.516;13.508;2022-11-15T17:12:51;7.72;99.99
69823;SHT31;57119;52.516;13.508;2022-11-15T17:15:17;7.71;99.99
69823;SHT31;57119;52.516;13.508;2022-11-15T17:17:43;7.69;99.99
69823;SHT31;57119;52.516;13.508;2022-11-15T17:20:15;7.72;99.99
69823;SHT31;57119;52.516;13.508;2022-11-15T17:22:40;7.54;99.99
69823;SHT31;57119;52.516;13.508;2022-11-15T17:25:06;7.56;99.99
69823;SHT31;57119;52.516;13.508;2022-11-15T17:27:31;7.52;99.99
69823;SHT31;57119;52.516;13.508;2022-11-15T17:29:57;7.45;99.99
69823;SHT31;57119;52.516;13.508;2022-11-15T17:32:22;7.48;99.99
69823;SHT31;57119;52.516;13.508;2022-11-15T17:34:48;7.38;99.99
69823;SHT31;57119;52.516;13.508;2022-11-15T17:37:13;7.47;99.99
69823;SHT31;57119;52.516;13.508;2022-11-15T17:39:39;7.48;99.99
69823;SHT31;57119;52.516;13.508;2022-11-15T17:42:04;7.48;99.99
69823;SHT31;57119;52.516;13.508;2022-11-15T17:44:30;7.41;99.99
69823;SHT31;57119;52.516;13.508;2022-11-15T17:46:56;7.41;99.99
69823;SHT31;57119;52.516;13.508;2022-11-15T17:49:22;7.44;99.99
69823;SHT31;57119;52.516;13.508;2022-11-15T17:51:47;7.40;99.99
69823;SHT31;57119;52.516;13.508;2022-11-15T17:54:13;7.51;99.99
69823;SHT31;57119;52.516;13.508;2022-11-15T17:56:39;7.35;99.99